Latest Weather Observations for Port Hedland

IDW60801

Issued at 8:03 am WST Wednesday 24 July 2024 (issued every 10 minutes, with the page automatically refreshed every 10 minutes)

About weather observations | Map of weather stations | Latest weather observations for WA | Other Formats
Station Details ID: 004032 Name: PORT HEDLAND AIRPORT Lat: -20.37 Lon: 118.63 Height: 6.4 m
Data from the previous 72 hours. | See also: Recent months at Port Hedland
Date/Time
WST
Temp
°C
App
Temp
°C
Dew
Point
°C
Rel
Hum
%
Delta-T
°C
Wind Press
QNH
hPa
Press
MSL
hPa
Rain since
9am
mm
Dir  Spd
km/h
Gust
km/h
Spd
kts
Gust
kts
24/08:00am 17.9 18.5 16.8 93 0.7 SSW 9 11 5 6 1014.9 1014.9 0.0
24/07:30am 16.2 16.9 16.0 99 0.1 WSW 7 7 4 4 1014.7 1014.7 0.0
24/07:00am 14.6 14.6 14.3 98 0.2 WSW 7 9 4 5 1014.2 1014.2 0.0
24/06:30am 14.5 14.1 14.2 98 0.2 WNW 9 9 5 5 1013.9 1013.9 0.0
24/06:00am 15.3 15.7 15.3 100 0.0 WSW 7 11 4 6 1013.6 1013.6 0.0
24/05:30am 15.4 16.0 15.4 100 0.0 WNW 6 7 3 4 1013.3 1013.3 0.0
24/05:00am 15.3 15.7 15.3 100 0.0 WNW 7 9 4 5 1013.2 1013.2 0.0
24/04:30am 16.1 16.4 16.1 100 0.0 NW 9 11 5 6 1013.3 1013.3 0.0
24/04:00am 16.4 18.2 16.4 100 0.0 WSW 2 7 1 4 1013.4 1013.4 0.0
24/03:30am 17.1 17.8 17.1 100 0.0 WSW 9 13 5 7 1013.4 1013.4 0.0
24/03:00am 17.1 19.2 17.1 100 0.0 S 2 6 1 3 1013.5 1013.5 0.0
24/02:33am 16.8 18.7 16.8 100 0.0 WNW 2 7 1 4 1013.6 1013.6 0.0
24/02:30am 16.8 18.4 16.8 100 0.0 WNW 4 7 2 4 1013.7 1013.7 0.0
24/02:21am 16.7 17.6 16.7 100 0.0 WNW 7 9 4 5 1013.7 1013.7 0.0
24/02:00am 17.3 18.5 17.3 100 0.0 NW 7 9 4 5 1013.7 1013.7 0.0
24/01:30am 16.8 17.8 16.8 100 0.0 NNW 7 7 4 4 1013.8 1013.8 0.0
24/01:00am 18.2 19.4 18.2 100 0.0 NNW 9 11 5 6 1013.9 1013.9 0.0
24/12:30am 17.4 18.6 17.4 100 0.0 NNW 7 9 4 5 1014.1 1014.1 0.0
24/12:27am 17.5 18.8 17.5 100 0.0 NNW 7 9 4 5 1014.1 1014.1 0.0
24/12:24am 17.5 18.4 17.5 100 0.0 NNW 9 9 5 5 1014.1 1014.1 0.0
24/12:12am 17.7 18.7 17.7 100 0.0 NNW 9 11 5 6 1014.2 1014.2 0.0
24/12:00am 18.2 19.4 18.2 100 0.0 NNW 9 9 5 5 1014.1 1014.1 0.0
 
Date/Time
WST
Temp
°C
App
Temp
°C
Dew
Point
°C
Rel
Hum
%
Delta-T
°C
Wind Press
QNH
hPa
Press
MSL
hPa
Rain since
9am
mm
Dir  Spd
km/h
Gust
km/h
Spd
kts
Gust
kts
23/11:53pm 17.6 18.5 17.6 100 0.0 NNW 9 9 5 5 1014.1 1014.1 0.0
23/11:30pm 17.5 18.0 17.5 100 0.0 NNW 11 11 6 6 1014.2 1014.2 0.0
23/11:00pm 18.3 19.2 18.3 100 0.0 N 11 13 6 7 1014.2 1014.2 0.0
23/10:30pm 18.6 19.6 18.6 100 0.0 NNW 11 13 6 7 1014.3 1014.3 0.0
23/10:00pm 18.1 19.1 17.8 98 0.2 NNW 9 9 5 5 1014.4 1014.4 0.0
23/09:30pm 18.1 18.9 17.3 95 0.5 NNW 9 9 5 5 1014.5 1014.5 0.0
23/09:00pm 17.6 18.5 16.5 93 0.7 NNW 7 9 4 5 1014.6 1014.6 0.0
23/08:30pm 18.0 18.2 16.7 92 0.8 NNW 11 11 6 6 1014.6 1014.6 0.0
23/08:00pm 18.8 19.6 17.3 91 0.9 NNW 9 11 5 6 1014.5 1014.5 0.0
23/07:30pm 18.9 19.5 16.7 87 1.3 NW 9 9 5 5 1014.3 1014.3 0.0
23/07:00pm 19.2 19.6 16.4 84 1.7 WNW 9 9 5 5 1014.2 1014.2 0.0
23/06:30pm 20.1 20.2 16.5 80 2.2 NW 11 11 6 6 1014.0 1014.0 0.0
23/06:00pm 21.4 21.7 17.0 76 2.7 NW 11 13 6 7 1013.8 1013.8 0.0
23/05:30pm 23.0 23.0 17.2 70 3.6 NW 13 17 7 9 1013.7 1013.7 0.0
23/05:00pm 23.9 22.6 17.2 66 4.1 NW 20 24 11 13 1013.8 1013.8 0.0
23/04:30pm 24.3 23.0 17.3 65 4.3 NW 20 26 11 14 1013.8 1013.8 0.0
23/04:00pm 25.3 24.1 17.5 62 4.9 NW 20 26 11 14 1013.8 1013.8 0.0
23/03:30pm 25.3 23.8 16.7 59 5.3 NW 20 26 11 14 1013.8 1013.8 0.0
23/03:00pm 25.7 24.1 16.5 56 5.7 NNW 20 28 11 15 1014.1 1014.1 0.0
23/02:30pm 26.8 25.2 16.1 52 6.6 NNW 19 26 10 14 1014.3 1014.3 0.0
23/02:00pm 26.3 24.4 14.1 47 7.2 NNW 17 24 9 13 1014.6 1014.6 0.0
23/01:30pm 26.3 24.8 14.1 47 7.2 N 15 20 8 11 1015.1 1015.1 0.0
23/01:00pm 26.7 25.5 14.1 46 7.5 N 13 22 7 12 1015.5 1015.5 0.0
23/12:30pm 26.4 24.7 13.5 45 7.6 N 15 20 8 11 1015.9 1015.9 0.0
23/12:00pm 26.1 24.2 12.9 44 7.7 NNE 15 19 8 10 1016.5 1016.5 0.0
23/11:30am 25.4 22.7 10.4 39 8.3 NNE 15 17 8 9 1017.0 1017.0 0.0
23/11:00am 24.4 21.1 8.0 35 8.7 NNE 15 19 8 10 1017.3 1017.3 0.0
23/10:30am 23.7 19.4 5.1 30 9.3 NNE 17 19 9 10 1017.7 1017.7 0.0
23/10:00am 23.6 20.5 5.5 31 9.1 NNE 11 15 6 8 1018.0 1018.0 0.0
23/09:30am 23.0 20.4 5.9 33 8.7 NE 9 13 5 7 1018.2 1018.2 0.0
23/09:00am 21.0 18.8 6.2 38 7.4 NE 7 7 4 4 1018.3 1018.3 0.0
23/08:30am 19.0 17.9 6.8 45 6.1 NE 2 7 1 4 1018.3 1018.3 0.0
23/08:00am 17.0 15.0 6.2 49 5.3 NE 6 7 3 4 1018.1 1018.1 0.0
23/07:30am 14.7 11.8 4.7 51 4.7 SE 9 11 5 6 1017.9 1017.9 0.0
23/07:00am 12.2 9.1 3.7 56 3.8 SE 9 11 5 6 1017.8 1017.8 0.0
23/06:30am 12.4 9.3 3.6 55 3.9 S 9 13 5 7 1017.3 1017.3 0.0
23/06:00am 12.3 8.9 3.8 56 3.8 SSE 11 13 6 7 1017.1 1017.1 0.0
23/05:30am 12.5 9.9 4.0 56 3.8 S 7 11 4 6 1017.0 1017.0 0.0
23/05:00am 12.7 10.1 4.4 57 3.8 S 7 11 4 6 1016.9 1016.9 0.0
23/04:30am 12.5 9.6 4.5 58 3.6 SSE 9 11 5 6 1016.8 1016.8 0.0
23/04:00am 12.7 9.8 4.9 59 3.6 SSE 9 11 5 6 1016.6 1016.6 0.0
23/03:30am 12.9 10.1 5.3 60 3.5 S 9 11 5 6 1016.7 1016.7 0.0
23/03:00am 13.3 10.7 5.9 61 3.5 S 9 11 5 6 1016.7 1016.7 0.0
23/02:30am 13.7 11.3 6.8 63 3.3 S 9 13 5 7 1016.8 1016.8 0.0
23/02:00am 13.8 11.1 7.3 65 3.2 SSE 11 15 6 8 1016.9 1016.9 0.0
23/01:30am 14.1 11.6 8.3 68 2.9 SSE 11 13 6 7 1017.1 1017.1 0.0
23/01:00am 14.5 12.6 9.1 70 2.7 S 9 11 5 6 1017.4 1017.4 0.0
23/12:30am 14.9 13.2 9.9 72 2.6 S 9 13 5 7 1017.5 1017.5 0.0
23/12:00am 14.7 13.6 10.5 76 2.2 S 7 9 4 5 1017.5 1017.5 0.0
 
Date/Time
WST
Temp
°C
App
Temp
°C
Dew
Point
°C
Rel
Hum
%
Delta-T
°C
Wind Press
QNH
hPa
Press
MSL
hPa
Rain since
9am
mm
Dir  Spd
km/h
Gust
km/h
Spd
kts
Gust
kts
22/11:30pm 15.2 14.2 11.0 76 2.2 S 7 9 4 5 1017.5 1017.5 0.0
22/11:00pm 15.4 14.1 11.4 77 2.1 SSE 9 11 5 6 1017.6 1017.6 0.0
22/10:30pm 16.0 14.9 12.0 77 2.2 S 9 11 5 6 1017.8 1017.8 0.0
22/10:00pm 16.1 15.4 12.1 77 2.2 SSE 7 9 4 5 1017.9 1017.9 0.0
22/09:30pm 16.5 17.2 12.1 75 2.4 CALM 0 0 0 0 1017.9 1017.9 0.0
22/09:00pm 17.2 17.9 12.3 73 2.7 CALM 0 0 0 0 1017.9 1017.9 0.0
22/08:30pm 18.2 18.0 13.1 72 2.9 NE 6 9 3 5 1017.9 1017.9 0.0
22/08:00pm 19.4 19.2 13.6 69 3.3 NE 7 9 4 5 1017.8 1017.8 0.0
22/07:30pm 20.8 20.4 14.0 65 3.9 NNE 9 11 5 6 1017.9 1017.9 0.0
22/07:00pm 21.2 20.1 13.1 60 4.6 N 11 15 6 8 1017.8 1017.8 0.0
22/06:30pm 22.0 20.3 12.5 54 5.4 N 13 17 7 9 1017.6 1017.6 0.0
22/06:00pm 22.7 20.3 11.4 49 6.3 N 15 19 8 10 1017.4 1017.4 0.0
22/05:30pm 24.0 20.4 9.9 41 7.7 N 19 24 10 13 1017.3 1017.3 0.0
22/05:00pm 24.9 20.8 8.8 36 8.7 NNE 20 26 11 14 1017.3 1017.3 0.0
22/04:30pm 25.3 20.6 9.2 36 8.8 NNE 24 28 13 15 1017.1 1017.1 0.0
22/04:00pm 26.2 20.5 8.2 32 9.7 NNE 28 33 15 18 1016.9 1016.9 0.0
22/03:30pm 26.2 20.6 8.7 33 9.5 NNE 28 33 15 18 1016.9 1016.9 0.0
22/03:00pm 26.4 20.9 9.3 34 9.4 NNE 28 35 15 19 1016.9 1016.9 0.0
22/02:30pm 26.5 20.6 8.9 33 9.6 NNE 30 35 16 19 1017.1 1017.1 0.0
22/02:00pm 26.4 20.8 8.8 33 9.6 NNE 28 35 15 19 1017.4 1017.4 0.0
22/01:30pm 26.4 20.6 7.9 31 9.9 NNE 28 33 15 18 1018.0 1018.0 0.0
22/01:00pm 27.0 21.5 5.9 26 10.9 NNE 24 30 13 16 1018.5 1018.5 0.0
22/12:30pm 28.9 23.2 3.0 19 12.9 NNE 22 28 12 15 1018.8 1018.8 0.0
22/12:00pm 28.7 23.2 2.1 18 13.0 NE 20 26 11 14 1019.4 1019.4 0.0
22/11:30am 28.1 22.4 0.8 17 13.0 NE 20 24 11 13 1020.0 1020.0 0.0
22/11:00am 27.6 21.9 0.4 17 12.8 ENE 20 24 11 13 1020.5 1020.5 0.0
22/10:30am 27.4 21.8 1.0 18 12.6 ENE 20 24 11 13 1020.7 1020.7 0.0
22/10:00am 26.5 20.5 1.0 19 12.0 E 22 30 12 16 1021.0 1021.0 0.0
22/09:30am 25.4 19.5 1.5 21 11.3 ESE 22 33 12 18 1021.3 1021.3 0.0
22/09:00am 23.9 18.3 0.9 22 10.6 ESE 20 28 11 15 1021.2 1021.2 0.0
22/08:30am 22.0 17.0 -1.3 21 10.2 SE 15 24 8 13 1020.9 1020.9 0.0
22/08:00am 18.8 13.8 -4.0 21 9.1 SSE 13 19 7 10 1020.6 1020.6 0.0
22/07:30am 15.8 10.8 -4.7 24 7.9 SSE 13 17 7 9 1020.4 1020.4 0.0
22/07:00am 14.2 9.5 -5.5 25 7.3 S 11 15 6 8 1020.0 1020.0 0.0
22/06:30am 13.5 8.0 -5.6 26 7.0 SSE 15 17 8 9 1019.8 1019.8 0.0
22/06:00am 13.3 8.1 -5.8 26 6.9 SSE 13 15 7 8 1019.8 1019.8 0.0
22/05:30am 13.6 8.9 -5.5 26 7.0 SSE 11 13 6 7 1019.7 1019.7 0.0
22/05:00am 14.3 9.6 -5.4 25 7.3 SSE 11 13 6 7 1019.5 1019.5 0.0
22/04:30am 14.1 9.4 -5.1 26 7.2 SSE 11 13 6 7 1019.3 1019.3 0.0
22/04:00am 14.8 9.7 -5.5 24 7.6 SSE 13 15 7 8 1019.2 1019.2 0.0
22/03:30am 16.3 10.8 -5.4 22 8.3 SE 15 17 8 9 1019.2 1019.2 0.0
22/03:00am 15.2 10.5 -4.7 25 7.6 SE 11 13 6 7 1019.3 1019.3 0.0
22/02:30am 17.2 12.1 -5.3 21 8.7 SE 13 19 7 10 1019.3 1019.3 0.0
22/02:00am 17.6 12.5 -5.0 21 8.8 SE 13 17 7 9 1019.5 1019.5 0.0
22/01:30am 17.3 12.7 -4.0 23 8.4 SE 11 13 6 7 1019.7 1019.7 0.0
22/01:00am 17.9 12.5 -4.1 22 8.7 SE 15 19 8 10 1019.9 1019.9 0.0
22/12:30am 17.3 12.5 -2.9 25 8.2 SSE 13 17 7 9 1020.1 1020.1 0.0
22/12:00am 17.8 12.6 -2.5 25 8.3 SSE 15 17 8 9 1020.2 1020.2 0.0
 
Date/Time
WST
Temp
°C
App
Temp
°C
Dew
Point
°C
Rel
Hum
%
Delta-T
°C
Wind Press
QNH
hPa
Press
MSL
hPa
Rain since
9am
mm
Dir  Spd
km/h
Gust
km/h
Spd
kts
Gust
kts
21/11:30pm 17.3 12.4 -0.4 30 7.6 SSE 15 19 8 10 1020.4 1020.4 0.0
21/11:00pm 18.2 13.1 0.8 31 7.7 SSE 17 20 9 11 1020.6 1020.6 0.0
21/10:30pm 20.0 15.3 1.0 28 8.6 SE 15 17 8 9 1020.7 1020.7 0.0
21/10:00pm 19.2 15.4 1.7 31 7.9 SSE 11 13 6 7 1020.5 1020.5 0.0
21/09:30pm 20.9 16.7 1.7 28 8.8 SE 13 19 7 10 1020.4 1020.4 0.0
21/09:00pm 21.0 16.9 2.3 29 8.7 SE 13 15 7 8 1020.4 1020.4 0.0
21/08:30pm 20.6 16.9 2.4 30 8.5 SE 11 13 6 7 1020.3 1020.3 0.0
21/08:00pm 21.1 18.3 2.9 30 8.6 ESE 7 9 4 5 1020.2 1020.2 0.0
21/07:30pm 21.6 18.8 2.3 28 9.0 E 6 9 3 5 1019.9 1019.9 0.0
21/07:00pm 23.2 19.5 2.1 25 9.9 SE 11 13 6 7 1019.6 1019.6 0.0
21/06:30pm 24.2 20.9 2.4 24 10.4 SE 9 13 5 7 1019.1 1019.1 0.0
21/06:00pm 25.9 21.9 2.6 22 11.3 SE 13 17 7 9 1018.8 1018.8 0.0
21/05:30pm 27.3 22.8 2.4 20 12.2 SE 15 22 8 12 1018.5 1018.5 0.0
21/05:00pm 28.1 22.9 2.3 19 12.6 SE 19 28 10 15 1018.3 1018.3 0.0
21/04:30pm 28.2 23.4 2.4 19 12.7 SE 17 28 9 15 1018.2 1018.2 0.0
21/04:00pm 28.8 23.7 2.9 19 12.9 ESE 19 30 10 16 1018.1 1018.1 0.0
21/03:30pm 28.9 23.6 3.0 19 12.9 ESE 20 30 11 16 1017.9 1017.9 0.0
21/03:00pm 28.5 23.3 2.7 19 12.8 ESE 19 26 10 14 1017.8 1017.8 0.0
21/02:30pm 29.1 24.0 3.1 19 13.0 E 19 30 10 16 1018.0 1018.0 0.0
21/02:00pm 28.8 23.2 3.6 20 12.7 E 22 35 12 19 1018.3 1018.3 0.0
21/01:30pm 28.8 23.2 3.6 20 12.7 ESE 22 32 12 17 1018.7 1018.7 0.0
21/01:00pm 28.1 22.0 3.0 20 12.4 ESE 24 33 13 18 1019.3 1019.3 0.0
21/12:30pm 27.9 21.4 2.9 20 12.4 ESE 26 39 14 21 1019.9 1019.9 0.0
21/12:00pm 27.3 20.9 3.1 21 11.9 ESE 26 35 14 19 1020.5 1020.5 0.0
21/11:30am 27.3 19.7 3.1 21 12.0 ESE 32 43 17 23 1020.9 1020.9 0.0
21/11:00am 25.9 19.1 3.2 23 11.1 ESE 28 37 15 20 1021.4 1021.4 0.0
21/10:30am 25.5 18.2 2.2 22 11.2 ESE 30 41 16 22 1021.8 1021.8 0.0
21/10:00am 24.4 17.7 1.3 22 10.8 ESE 26 35 14 19 1022.3 1022.3 0.0
21/09:30am 22.9 16.5 0.7 23 10.2 ESE 24 35 13 19 1022.4 1022.4 0.0
21/09:00am 21.7 13.5 0.3 24 9.6 ESE 33 43 18 23 1022.5 1022.5 0.0
21/08:30am 20.9 14.1 0.7 26 9.1 ESE 26 35 14 19 1022.4 1022.4 0.0

Other formats

Comma delimited format used in spreadsheet applications
http://www.bom.gov.au/fwo/IDW60801/IDW60801.94312.axf

JavaScript Object Notation format (JSON) in row-major order
http://www.bom.gov.au/fwo/IDW60801/IDW60801.94312.json

Data quality

Most of these data are generated automatically and are frequently updated. Quality checks on data are not normally performed. It is possible for incorrect values to appear. Refer to information at About Latest Weather Observations and please check the disclaimer before using these data.